Ellenville, New York
Current Conditions -  °F | °C
As of 9:54 PM on Friday 19 Dec 2014 (Local Time) from KMGJ Reporting Station
Clear Clear  
Wind Chill: 27°   Ceiling: Unl
Heat Index: 27°   Visibility: 10mi
Dew Point: 20°   Wind: 0mph
Humidity: 75%   Direction: NA
Pressure: 30.14"   Gusts: NA
Location:  41.72°N, 74.4°W
Report Text: KMGJ 200254Z AUTO 00000KT 10SM CLR M03/M07 A3014 RMK AO2 SLP209 T10281067 53003 TSNO
Loading
Personal Weather Stations






























Interactive Weather Map New forecast layout! Learn more

10-Day Weather Forecast

Advertisements
Track Severe Weather on mobile